createdAt,value
2023-01-05T00:01:53.319Z,98014.63
2023-01-05T00:04:21.011Z,98010.63
2023-01-05T00:06:48.871Z,98010.91
2023-01-05T00:09:18.910Z,98010.38
2023-01-05T00:12:04.852Z,98020.26
2023-01-05T00:14:52.385Z,98019.97
2023-01-05T00:17:41.375Z,98018.13
2023-01-05T00:20:40.020Z,98020.50
2023-01-05T00:23:09.156Z,98018.91
2023-01-05T00:25:39.821Z,98013.33
2023-01-05T00:28:07.976Z,98010.66
2023-01-05T00:30:40.388Z,98000.83
2023-01-05T00:33:11.719Z,97997.09
2023-01-05T00:35:40.037Z,97990.70
2023-01-05T00:38:08.555Z,97998.15
2023-01-05T00:40:38.553Z,98002.14
2023-01-05T00:43:06.443Z,97997.11
2023-01-05T00:45:34.402Z,97998.44
2023-01-05T00:48:02.097Z,97995.77
2023-01-05T00:50:29.980Z,97993.62
2023-01-05T00:52:57.703Z,97992.84
2023-01-05T00:55:27.689Z,97974.99
2023-01-05T00:57:56.100Z,97972.58
2023-01-05T01:00:23.990Z,97969.67
2023-01-05T01:02:54.722Z,97968.08
2023-01-05T01:05:23.541Z,97973.12
2023-01-05T01:07:52.760Z,97980.84
2023-01-05T01:10:20.650Z,97980.59
2023-01-05T01:12:48.357Z,97984.30
2023-01-05T01:15:16.312Z,97972.33
2023-01-05T01:17:44.341Z,97967.80
2023-01-05T01:20:12.678Z,97965.67
2023-01-05T01:22:40.508Z,97962.47
2023-01-05T01:25:09.335Z,97961.42
2023-01-05T01:27:37.115Z,97959.55
2023-01-05T01:30:05.990Z,97959.02
2023-01-05T01:32:34.088Z,97956.89
2023-01-05T01:35:01.982Z,97950.23
2023-01-05T01:37:29.985Z,97941.71
2023-01-05T01:39:58.484Z,97927.60
2023-01-05T01:42:26.675Z,97918.81
2023-01-05T01:45:01.342Z,97918.03
2023-01-05T01:47:39.326Z,97915.66
2023-01-05T01:50:19.041Z,97915.39
2023-01-05T01:52:50.556Z,97909.30
2023-01-05T01:55:19.619Z,97904.50
2023-01-05T01:57:49.099Z,97903.97
2023-01-05T02:00:18.818Z,97903.95
2023-01-05T02:02:49.143Z,97899.42
2023-01-05T02:05:22.481Z,97902.89
2023-01-05T02:07:50.345Z,97895.70
2023-01-05T02:10:23.920Z,97890.64
2023-01-05T02:13:12.316Z,97882.14
2023-01-05T02:15:54.382Z,97878.69
2023-01-05T02:18:39.804Z,97876.56
2023-01-05T02:21:33.553Z,97883.21
2023-01-05T02:24:27.614Z,97877.35
2023-01-05T02:27:21.583Z,97865.09
2023-01-05T02:30:14.337Z,97858.47
2023-01-05T02:33:02.294Z,97854.19
2023-01-05T02:35:53.629Z,97853.40
2023-01-05T02:38:44.287Z,97839.84
2023-01-05T02:44:02.338Z,97812.44
2023-01-05T02:46:30.938Z,97816.44
2023-01-05T02:49:01.259Z,97820.17
2023-01-05T02:51:39.143Z,97812.20
2023-01-05T02:54:20.640Z,97806.59
2023-01-05T02:57:04.511Z,97806.87
2023-01-05T02:59:49.499Z,97795.70
2023-01-05T03:02:24.897Z,97783.20
2023-01-05T03:05:07.503Z,97786.11
2023-01-05T03:07:39.416Z,97779.20
2023-01-05T03:10:12.279Z,97780.25
2023-01-05T03:12:58.727Z,97778.64
2023-01-05T03:15:32.940Z,97787.67
2023-01-05T03:18:05.045Z,97781.27
2023-01-05T03:20:35.653Z,97770.92
2023-01-05T03:23:26.468Z,97764.52
2023-01-05T03:26:14.721Z,97764.52
2023-01-05T03:29:17.847Z,97770.63
2023-01-05T03:32:16.927Z,97767.44
2023-01-05T03:35:17.585Z,97754.67
2023-01-05T03:38:12.355Z,97749.09
2023-01-05T03:40:41.625Z,97748.55
2023-01-05T03:43:10.236Z,97739.49
2023-01-05T03:45:46.667Z,97730.72
2023-01-05T03:48:16.596Z,97735.25
2023-01-05T03:50:44.524Z,97733.66
2023-01-05T03:53:14.874Z,97731.00
2023-01-05T03:55:44.208Z,97730.18
2023-01-05T03:58:12.176Z,97729.92
2023-01-05T04:00:41.880Z,97719.53
2023-01-05T04:03:10.602Z,97709.68
2023-01-05T04:05:39.372Z,97710.47
2023-01-05T04:08:07.148Z,97709.94
2023-01-05T04:10:36.091Z,97708.34
2023-01-05T04:13:04.172Z,97708.60
2023-01-05T04:15:32.113Z,97707.81
2023-01-05T04:18:00.562Z,97714.20
2023-01-05T04:20:28.944Z,97707.56
2023-01-05T04:22:56.751Z,97708.89
2023-01-05T04:25:26.497Z,97705.98
2023-01-05T04:27:54.290Z,97702.78
2023-01-05T04:30:22.490Z,97691.09
2023-01-05T04:32:50.455Z,97691.34
2023-01-05T04:35:18.199Z,97687.36
2023-01-05T04:37:46.097Z,97687.89
2023-01-05T04:40:14.382Z,97690.02
2023-01-05T04:42:44.072Z,97692.42
2023-01-05T04:45:11.709Z,97695.09
2023-01-05T04:47:39.690Z,97678.88
2023-01-05T04:50:11.197Z,97665.31
2023-01-05T04:52:39.593Z,97655.25
2023-01-05T04:55:08.958Z,97652.59
2023-01-05T04:57:36.931Z,97641.17
2023-01-05T05:00:05.900Z,97635.85
2023-01-05T05:02:34.997Z,97634.80
2023-01-05T05:05:03.245Z,97628.70
2023-01-05T05:07:31.102Z,97620.47
2023-01-05T05:09:59.996Z,97629.77
2023-01-05T05:12:28.324Z,97625.50
2023-01-05T05:14:56.219Z,97624.70
2023-01-05T05:17:24.978Z,97619.39
2023-01-05T05:19:52.870Z,97617.81
2023-01-05T05:22:21.504Z,97613.53
2023-01-05T05:24:49.550Z,97615.41
2023-01-05T05:27:17.276Z,97616.73
2023-01-05T05:29:45.186Z,97605.59
2023-01-05T05:32:13.033Z,97605.84
2023-01-05T05:34:40.898Z,97605.84
2023-01-05T05:37:09.196Z,97598.66
2023-01-05T05:39:36.882Z,97606.09
2023-01-05T05:42:04.957Z,97597.57
2023-01-05T05:44:32.791Z,97609.00
2023-01-05T05:47:00.528Z,97613.24
2023-01-05T05:49:28.501Z,97614.31
2023-01-05T05:51:56.464Z,97614.31
2023-01-05T05:54:24.319Z,97616.94
2023-01-05T05:56:52.132Z,97620.67
2023-01-05T05:59:20.071Z,97615.89
2023-01-05T06:01:47.952Z,97612.44
2023-01-05T06:04:15.717Z,97606.59
2023-01-05T06:06:43.357Z,97598.33
2023-01-05T06:09:11.070Z,97590.34
2023-01-05T06:11:39.013Z,97594.87
2023-01-05T06:14:07.982Z,97582.10
2023-01-05T06:16:35.967Z,97578.36
2023-01-05T06:19:03.782Z,97565.59
2023-01-05T06:21:31.851Z,97567.19
2023-01-05T06:23:59.692Z,97569.31
2023-01-05T06:26:27.591Z,97567.73
2023-01-05T06:28:55.624Z,97571.97
2023-01-05T06:31:23.414Z,97571.46
2023-01-05T06:33:51.116Z,97575.70
2023-01-05T06:36:18.954Z,97582.06
2023-01-05T06:38:46.843Z,97582.59
2023-01-05T06:41:14.941Z,97587.38
2023-01-05T06:43:42.682Z,97580.97
2023-01-05T06:46:10.690Z,97570.33
2023-01-05T06:48:38.877Z,97578.02
2023-01-05T06:51:06.670Z,97567.87
2023-01-05T06:53:34.689Z,97571.85
2023-01-05T06:56:02.740Z,97572.39
2023-01-05T06:58:30.861Z,97560.95
2023-01-05T07:00:58.975Z,97554.26
2023-01-05T07:03:30.991Z,97546.27
2023-01-05T07:05:58.987Z,97536.41
2023-01-05T07:08:27.157Z,97528.17
2023-01-05T07:10:55.156Z,97521.52
2023-01-05T07:13:23.373Z,97526.53
2023-01-05T07:15:51.457Z,97531.86
2023-01-05T07:18:19.559Z,97533.98
2023-01-05T07:20:47.583Z,97534.22
2023-01-05T07:23:18.189Z,97534.45
2023-01-05T07:25:47.265Z,97537.88
2023-01-05T07:28:15.626Z,97533.59
2023-01-05T07:30:43.921Z,97527.42
2023-01-05T07:33:11.915Z,97525.84
2023-01-05T07:35:39.900Z,97523.12
2023-01-05T07:38:12.475Z,97517.48
2023-01-05T07:40:41.253Z,97519.59
2023-01-05T07:43:09.495Z,97510.80
2023-01-05T07:45:37.797Z,97514.23
2023-01-05T07:48:11.915Z,97501.70
2023-01-05T07:50:39.641Z,97491.04
2023-01-05T07:53:07.535Z,97482.76
2023-01-05T07:55:35.460Z,97472.64
2023-01-05T07:58:03.426Z,97478.19
2023-01-05T08:00:31.141Z,97466.98
2023-01-05T08:02:58.868Z,97470.97
2023-01-05T08:05:28.508Z,97467.46
2023-01-05T08:07:58.190Z,97449.06
2023-01-05T08:10:30.170Z,97452.80
2023-01-05T08:13:22.276Z,97435.95
2023-01-05T08:15:57.781Z,97440.72
2023-01-05T08:18:25.621Z,97464.38
2023-01-05T08:20:59.232Z,97457.39
2023-01-05T08:23:28.252Z,97452.05
2023-01-05T08:25:56.288Z,97447.48
2023-01-05T08:28:29.901Z,97450.08
2023-01-05T08:31:02.124Z,97465.50
2023-01-05T08:33:29.937Z,97457.95
2023-01-05T08:35:58.276Z,97434.18
2023-01-05T08:38:26.558Z,97443.48
2023-01-05T08:41:01.964Z,97437.34
2023-01-05T08:43:31.756Z,97417.05
2023-01-05T08:45:59.062Z,97430.92
2023-01-05T08:48:26.887Z,97433.04
2023-01-05T08:50:54.655Z,97421.83
2023-01-05T08:53:22.370Z,97415.95
2023-01-05T08:55:50.175Z,97419.14
2023-01-05T08:58:17.907Z,97413.78
2023-01-05T09:00:45.841Z,97417.73
2023-01-05T09:03:13.681Z,97415.03
2023-01-05T09:05:41.755Z,97405.94
2023-01-05T09:08:09.434Z,97406.22
2023-01-05T09:10:37.193Z,97400.59
2023-01-05T09:13:04.977Z,97405.05
2023-01-05T09:15:32.540Z,97372.23
2023-01-05T09:18:01.076Z,97364.20
2023-01-05T09:20:32.013Z,97376.16
2023-01-05T09:22:58.708Z,97365.17
2023-01-05T09:25:26.546Z,97374.50
2023-01-05T09:27:54.415Z,97372.86
2023-01-05T09:30:22.081Z,97368.31
2023-01-05T09:32:50.143Z,97354.44
2023-01-05T09:35:17.915Z,97345.38
2023-01-05T09:37:46.152Z,97337.06
2023-01-05T09:40:14.151Z,97329.85
2023-01-05T09:42:45.865Z,97331.97
2023-01-05T09:45:20.863Z,97318.84
2023-01-05T09:47:49.745Z,97308.17
2023-01-05T09:50:24.612Z,97315.33
2023-01-05T09:52:57.315Z,97316.66
2023-01-05T09:55:28.572Z,97309.44
2023-01-05T09:58:04.810Z,97308.11
2023-01-05T10:00:33.426Z,97294.47
2023-01-05T10:03:44.681Z,97296.31
2023-01-05T10:05:49.504Z,97283.48
2023-01-05T10:08:28.424Z,97290.66
2023-01-05T10:11:23.194Z,97264.53
2023-01-05T10:14:05.363Z,97263.47
2023-01-05T10:16:35.141Z,97273.29
2023-01-05T10:19:04.337Z,97265.01
2023-01-05T10:22:06.794Z,97262.78
2023-01-05T10:24:46.846Z,97259.77
2023-01-05T10:27:38.648Z,97258.67
2023-01-05T10:30:28.448Z,97257.34
2023-01-05T10:33:25.261Z,97247.45
2023-01-05T10:36:12.043Z,97242.63
2023-01-05T10:39:00.565Z,97235.84
2023-01-05T10:41:40.933Z,97226.97
2023-01-05T10:44:32.216Z,97226.66
2023-01-05T10:47:01.438Z,97228.70
2023-01-05T10:49:32.358Z,97231.84
2023-01-05T10:52:01.245Z,97224.89
2023-01-05T10:54:46.790Z,97227.31
2023-01-05T10:57:37.502Z,97228.66
2023-01-05T11:00:19.873Z,97228.94
2023-01-05T11:03:00.962Z,97226.85
2023-01-05T11:05:36.422Z,97219.94
2023-01-05T11:08:09.023Z,97215.62
2023-01-05T11:10:59.173Z,97198.83
2023-01-05T11:13:42.934Z,97202.28
2023-01-05T11:16:15.891Z,97208.72
2023-01-05T11:19:03.469Z,97196.42
2023-01-05T11:21:41.832Z,97182.46
2023-01-05T11:24:26.757Z,97166.61
2023-01-05T11:27:02.539Z,97194.63
2023-01-05T11:29:32.677Z,97185.52
2023-01-05T11:32:06.401Z,97168.43
2023-01-05T11:34:45.407Z,97174.55
2023-01-05T11:37:23.734Z,97170.00
2023-01-05T11:39:55.740Z,97160.97
2023-01-05T11:42:28.752Z,97163.09
2023-01-05T11:45:06.765Z,97159.63
2023-01-05T11:47:44.600Z,97152.14
2023-01-05T11:50:28.205Z,97147.12
2023-01-05T11:52:58.919Z,97138.09
2023-01-05T11:55:39.578Z,97138.38
2023-01-05T11:58:30.472Z,97126.86
2023-01-05T12:01:12.411Z,97112.18
2023-01-05T12:04:07.227Z,97109.98
2023-01-05T12:07:19.824Z,97097.19
2023-01-05T12:10:05.382Z,97094.23
2023-01-05T12:12:38.763Z,97102.24
2023-01-05T12:15:18.150Z,97094.23
2023-01-05T12:18:24.207Z,97077.40
2023-01-05T12:21:12.467Z,97082.03
2023-01-05T12:24:08.442Z,97076.61
2023-01-05T12:26:44.374Z,97075.83
2023-01-05T12:36:01.820Z,97064.60
2023-01-05T12:38:43.979Z,97070.20
2023-01-05T12:41:38.108Z,97065.16
2023-01-05T12:44:26.621Z,97070.25
2023-01-05T12:47:28.781Z,97058.01
2023-01-05T12:50:01.212Z,97066.54
2023-01-05T12:52:55.117Z,97073.21
2023-01-05T12:59:01.022Z,97075.05
2023-01-05T13:01:34.142Z,97070.55
2023-01-05T13:04:16.076Z,97106.06
2023-01-05T13:06:51.663Z,97115.50
2023-01-05T13:09:29.349Z,97115.95
2023-01-05T13:12:07.321Z,97117.91
2023-01-05T13:14:52.919Z,97125.72
2023-01-05T13:17:29.720Z,97112.23
2023-01-05T13:20:18.417Z,97108.82
2023-01-05T13:22:49.333Z,97111.48
2023-01-05T13:25:24.255Z,97128.83
2023-01-05T13:27:52.261Z,97117.92
2023-01-05T13:30:37.829Z,97116.94
2023-01-05T13:33:35.931Z,97124.98
2023-01-05T13:36:33.039Z,97111.45
2023-01-05T13:39:34.039Z,97113.47
2023-01-05T13:42:42.135Z,97113.47
2023-01-05T13:45:24.538Z,97107.11
2023-01-05T13:48:44.588Z,97096.44
2023-01-05T13:51:49.785Z,97104.95
2023-01-05T13:54:26.932Z,97110.52
2023-01-05T13:56:55.388Z,97089.97
2023-01-05T13:59:34.876Z,97065.88
2023-01-05T14:02:00.091Z,97069.81
2023-01-05T14:04:33.057Z,97061.88
2023-01-05T14:07:12.700Z,97065.34
2023-01-05T14:09:49.096Z,97068.23
2023-01-05T14:12:22.786Z,97065.53
2023-01-05T14:15:12.555Z,97047.14
2023-01-05T14:18:01.287Z,97027.92
2023-01-05T14:20:51.227Z,97031.92
2023-01-05T14:23:29.639Z,97039.09
2023-01-05T14:26:08.214Z,97031.59
2023-01-05T14:28:45.778Z,97020.30
2023-01-05T14:31:20.684Z,97025.36
2023-01-05T14:34:06.595Z,97032.50
2023-01-05T14:37:00.932Z,97033.31
2023-01-05T14:39:44.545Z,97039.16
2023-01-05T14:42:17.212Z,97029.55
2023-01-05T14:45:01.142Z,97031.12
2023-01-05T14:47:48.089Z,97029.78
2023-01-05T14:50:40.140Z,97026.09
2023-01-05T14:53:21.746Z,97027.90
2023-01-05T14:55:58.417Z,97041.23
2023-01-05T14:58:43.558Z,97049.50
2023-01-05T15:01:22.951Z,97046.53
2023-01-05T15:04:17.042Z,97047.03
2023-01-05T15:07:19.716Z,97038.71
2023-01-05T15:10:05.238Z,97039.27
2023-01-05T15:12:54.440Z,97039.50
2023-01-05T15:15:43.492Z,97033.38
2023-01-05T15:18:38.191Z,97042.24
2023-01-05T15:21:11.357Z,97042.16
2023-01-05T15:24:21.108Z,97050.44
2023-01-05T15:27:09.388Z,97052.24
2023-01-05T15:30:01.631Z,97058.31
2023-01-05T15:32:37.301Z,97060.94
2023-01-05T15:35:28.519Z,97061.17
2023-01-05T15:37:56.583Z,97061.36
2023-01-05T15:40:30.450Z,97061.05
2023-01-05T15:43:01.777Z,97063.67
2023-01-05T15:45:35.960Z,97061.55
2023-01-05T15:48:09.378Z,97074.58
2023-01-05T15:50:48.437Z,97073.25
2023-01-05T15:53:34.873Z,97066.58
2023-01-05T15:56:04.138Z,97068.72
2023-01-05T15:58:36.674Z,97062.05
2023-01-05T16:01:09.881Z,97064.17
2023-01-05T16:03:41.127Z,97061.50
2023-01-05T16:06:28.004Z,97056.16
2023-01-05T16:09:01.488Z,97056.95
2023-01-05T16:11:40.225Z,97066.58
2023-01-05T16:14:27.712Z,97068.17
2023-01-05T16:17:06.570Z,97068.41
2023-01-05T16:19:42.373Z,97074.80
2023-01-05T16:22:36.527Z,97065.69
2023-01-05T16:25:21.918Z,97063.02
2023-01-05T16:27:56.469Z,97068.05
2023-01-05T16:30:34.593Z,97080.33
2023-01-05T16:33:20.284Z,97081.58
2023-01-05T16:35:54.859Z,97085.03
2023-01-05T16:38:30.745Z,97083.18
2023-01-05T16:41:16.588Z,97088.44
2023-01-05T16:44:02.053Z,97087.11
2023-01-05T16:46:34.798Z,97079.84
2023-01-05T16:49:28.175Z,97085.31
2023-01-05T16:51:56.873Z,97087.56
2023-01-05T16:54:38.856Z,97074.09
2023-01-05T16:57:34.300Z,97081.91
2023-01-05T17:00:03.991Z,97089.30
2023-01-05T17:02:45.741Z,97099.06
2023-01-05T17:05:22.125Z,97100.30
2023-01-05T17:08:07.817Z,97099.93
2023-01-05T17:10:36.297Z,97095.88
2023-01-05T17:13:09.384Z,97097.13
2023-01-05T17:15:43.453Z,97090.94
2023-01-05T17:18:27.099Z,97103.98
2023-01-05T17:20:58.677Z,97105.59
2023-01-05T17:23:49.609Z,97111.72
2023-01-05T17:26:32.280Z,97118.86
2023-01-05T17:31:35.261Z,97123.36
2023-01-05T17:34:03.459Z,97126.27
2023-01-05T17:36:34.021Z,97121.19
2023-01-05T17:39:02.795Z,97127.55
2023-01-05T17:41:30.866Z,97123.78
2023-01-05T17:43:58.788Z,97125.06
2023-01-05T17:46:31.110Z,97127.97
2023-01-05T17:49:02.238Z,97135.14
2023-01-05T17:51:30.807Z,97140.99
2023-01-05T17:53:59.371Z,97138.84
2023-01-05T17:56:27.035Z,97138.78
2023-01-05T17:59:00.292Z,97138.23
2023-01-05T18:01:28.273Z,97135.01
2023-01-05T18:03:56.273Z,97119.30
2023-01-05T18:06:25.093Z,97116.39
2023-01-05T18:08:54.804Z,97119.11
2023-01-05T18:11:24.995Z,97120.82
2023-01-05T18:13:54.924Z,97122.53
2023-01-05T18:16:23.860Z,97110.61
2023-01-05T18:18:53.943Z,97123.23
2023-01-05T18:21:22.486Z,97129.50
2023-01-05T18:23:51.672Z,97122.41
2023-01-05T18:26:19.536Z,97128.08
2023-01-05T18:28:47.424Z,97136.17
2023-01-05T18:31:16.412Z,97137.80
2023-01-05T18:33:44.973Z,97145.08
2023-01-05T18:36:14.618Z,97146.17
2023-01-05T18:38:42.935Z,97142.22
2023-01-05T18:41:12.239Z,97150.23
2023-01-05T18:43:43.208Z,97148.89
2023-01-05T18:46:10.973Z,97148.11
2023-01-05T18:48:38.747Z,97144.94
2023-01-05T18:51:08.566Z,97155.12
2023-01-05T18:53:39.235Z,97152.16
2023-01-05T18:56:09.794Z,97147.42
2023-01-05T18:58:46.440Z,97145.58
2023-01-05T19:01:17.758Z,97151.47
2023-01-05T19:03:46.360Z,97151.52
2023-01-05T19:06:17.518Z,97153.64
2023-01-05T19:08:48.183Z,97149.16
2023-01-05T19:11:26.194Z,97146.78
2023-01-05T19:13:55.882Z,97136.96
2023-01-05T19:16:27.237Z,97147.14
2023-01-05T19:19:00.756Z,97146.41
2023-01-05T19:21:32.353Z,97148.28
2023-01-05T19:24:02.657Z,97135.47
2023-01-05T19:26:33.198Z,97149.43
2023-01-05T19:29:03.262Z,97149.74
2023-01-05T19:31:31.522Z,97149.98
2023-01-05T19:33:59.499Z,97151.31
2023-01-05T19:36:31.262Z,97146.21
2023-01-05T19:39:07.843Z,97147.27
2023-01-05T19:41:38.637Z,97142.16
2023-01-05T19:44:07.136Z,97142.16
2023-01-05T19:46:35.449Z,97144.00
2023-01-05T19:49:03.511Z,97148.23
2023-01-05T19:51:31.581Z,97147.92
2023-01-05T19:54:03.515Z,97155.89
2023-01-05T19:56:36.425Z,97150.78
2023-01-05T19:59:09.497Z,97147.05
2023-01-05T20:01:37.677Z,97140.61
2023-01-05T20:04:06.014Z,97145.11
2023-01-05T20:06:40.388Z,97141.34
2023-01-05T20:09:12.583Z,97142.63
2023-01-05T20:11:45.842Z,97146.09
2023-01-05T20:14:26.215Z,97143.41
2023-01-05T20:16:58.283Z,97141.81
2023-01-05T20:19:29.366Z,97144.20
2023-01-05T20:22:03.056Z,97144.20
2023-01-05T20:24:33.723Z,97142.08
2023-01-05T20:27:05.807Z,97148.98
2023-01-05T20:29:34.591Z,97143.70
2023-01-05T20:32:07.433Z,97145.82
2023-01-05T20:34:43.603Z,97143.97
2023-01-05T20:37:12.328Z,97144.48
2023-01-05T20:39:42.820Z,97145.58
2023-01-05T20:42:13.465Z,97153.36
2023-01-05T20:44:46.198Z,97155.80
2023-01-05T20:47:16.613Z,97146.45
2023-01-05T20:49:45.659Z,97152.02
2023-01-05T20:52:17.055Z,97147.23
2023-01-05T20:54:49.924Z,97141.89
2023-01-05T20:57:21.763Z,97142.96
2023-01-05T20:59:49.806Z,97141.16
2023-01-05T21:02:24.063Z,97138.53
2023-01-05T21:04:47.604Z,97139.31
2023-01-05T21:07:15.676Z,97141.20
2023-01-05T21:09:43.539Z,97139.91
2023-01-05T21:12:11.359Z,97137.80
2023-01-05T21:14:39.206Z,97132.77
2023-01-05T21:17:07.264Z,97144.78
2023-01-05T21:19:36.562Z,97144.00
2023-01-05T21:22:04.870Z,97153.34
2023-01-05T21:24:32.668Z,97145.33
2023-01-05T21:27:00.843Z,97146.91
2023-01-05T21:29:30.650Z,97142.90
2023-01-05T21:32:00.235Z,97144.78
2023-01-05T21:34:28.177Z,97144.00
2023-01-05T21:36:56.044Z,97148.00
2023-01-05T21:39:27.371Z,97143.14
2023-01-05T21:42:13.735Z,97149.02
2023-01-05T21:44:41.605Z,97153.53
2023-01-05T21:47:09.869Z,97156.94
2023-01-05T21:49:39.526Z,97147.28
2023-01-05T21:52:25.716Z,97155.53
2023-01-05T21:55:12.573Z,97156.81
2023-01-05T21:57:40.097Z,97168.78
2023-01-05T22:00:09.208Z,97172.71
2023-01-05T22:02:37.251Z,97169.20
2023-01-05T22:05:06.448Z,97168.92
2023-01-05T22:07:34.415Z,97168.92
2023-01-05T22:10:02.437Z,97169.42
2023-01-05T22:12:30.520Z,97182.73
2023-01-05T22:14:58.233Z,97168.83
2023-01-05T22:17:26.182Z,97167.17
2023-01-05T22:19:53.934Z,97176.71
2023-01-05T22:22:22.474Z,97171.88
2023-01-05T22:24:50.376Z,97179.29
2023-01-05T22:27:18.364Z,97178.42
2023-01-05T22:29:46.353Z,97178.69
2023-01-05T22:32:14.252Z,97179.16
2023-01-05T22:34:43.933Z,97186.10
2023-01-05T22:37:11.920Z,97189.01
2023-01-05T22:39:39.880Z,97190.89
2023-01-05T22:42:07.805Z,97183.66
2023-01-05T22:44:35.503Z,97180.68
2023-01-05T22:47:03.146Z,97181.47
2023-01-05T22:49:31.026Z,97186.28
2023-01-05T22:51:58.771Z,97194.77
2023-01-05T22:54:26.860Z,97186.76
2023-01-05T22:56:54.645Z,97192.05
2023-01-05T22:59:22.475Z,97198.68
2023-01-05T23:01:50.179Z,97203.95
2023-01-05T23:04:18.733Z,97196.71
2023-01-05T23:06:46.451Z,97194.78
2023-01-05T23:09:16.264Z,97193.70
2023-01-05T23:11:46.420Z,97198.97
2023-01-05T23:14:17.364Z,97190.43
2023-01-05T23:16:45.482Z,97202.14
2023-01-05T23:19:14.635Z,97199.47
2023-01-05T23:21:42.818Z,97199.70
2023-01-05T23:24:10.888Z,97193.52
2023-01-05T23:26:38.832Z,97197.77
2023-01-05T23:29:06.764Z,97193.20
2023-01-05T23:31:34.696Z,97188.96
2023-01-05T23:34:02.595Z,97187.63
2023-01-05T23:36:30.307Z,97190.30
2023-01-05T23:38:58.126Z,97193.81
2023-01-05T23:41:25.761Z,97193.02
2023-01-05T23:43:53.663Z,97197.58
2023-01-05T23:46:22.472Z,97199.47
2023-01-05T23:48:51.700Z,97204.03
2023-01-05T23:51:19.995Z,97200.57
2023-01-05T23:53:51.831Z,97202.45
2023-01-05T23:56:24.414Z,97197.40
2023-01-05T23:59:00.280Z,97200.86
